Malvern, Pennsylvania
Current Conditions -  °F | °C
As of 10:54 AM on Friday 19 Dec 2014 (Local Time) from KPTW Reporting Station
Overcast Overcast  
Wind Chill: 31°   Ceiling: 3300
Heat Index: 37°   Visibility: 10mi
Dew Point: 23°   Wind: 8mph
Humidity: 57%   Direction: 330°NNW
Pressure: 30.09"   Gusts: 20mph
Location:  40.04°N, 75.51°W
Report Text: KPTW 191554Z AUTO 33007G17KT 290V350 10SM OVC033 03/M05 A3009 RMK AO2 SLP190 T00281050
Loading
Personal Weather Stations






























Interactive Weather Map New forecast layout! Learn more

10-Day Weather Forecast

Advertisements
Track Severe Weather on mobile